Time;durP1;ratioP1;P1;durP2;ratioP2;P2;SDS_P1;SDS_P2;PMS_P1;PMS_P2;Temp;Humidity;BMP_temperature;BMP_pressure;BME280_temperature;BME280_humidity;BME280_pressure;Samples;Min_cycle;Max_cycle;Signal;HPM_P1;HPM_P2
2023/05/23 00:01:57;;;;;;;1.80;1.50;;;;;;;11.37;100.00;99731.23;105217;1255;61918;-46
2023/05/23 00:04:25;;;;;;;2.50;2.00;;;;;;;11.38;100.00;99730.46;107371;1255;75289;-47
2023/05/23 00:06:53;;;;;;;2.50;1.60;;;;;;;11.37;100.00;99728.91;105427;1256;66793;-49
2023/05/23 00:09:21;;;;;;;3.10;2.00;;;;;;;11.36;100.00;99726.98;105914;1256;72162;-46
2023/05/23 00:11:48;;;;;;;6.60;2.10;;;;;;;11.37;100.00;99720.45;105087;1257;60408;-45
2023/05/23 00:14:15;;;;;;;2.30;2.00;;;;;;;11.40;100.00;99717.48;105312;1256;59979;-48
2023/05/23 00:16:43;;;;;;;2.80;2.00;;;;;;;11.42;100.00;99717.00;105255;1256;73411;-47
2023/05/23 00:19:13;;;;;;;5.60;2.40;;;;;;;11.43;100.00;99712.98;105450;1260;66599;-47
2023/05/23 00:21:49;;;;;;;3.10;2.00;;;;;;;11.44;100.00;99710.80;107775;1258;71412;-45
2023/05/23 00:24:19;;;;;;;5.30;2.20;;;;;;;11.42;100.00;99708.91;105526;1256;59591;-46
2023/05/23 00:26:46;;;;;;;4.60;2.00;;;;;;;11.34;100.00;99707.83;105485;1258;59663;-47
2023/05/23 00:29:17;;;;;;;4.00;2.60;;;;;;;11.29;100.00;99711.40;105268;1260;74775;-47
2023/05/23 00:31:45;;;;;;;2.70;2.40;;;;;;;11.24;100.00;99709.45;105116;1256;67603;-44
2023/05/23 00:34:16;;;;;;;4.50;1.90;;;;;;;11.20;100.00;99706.65;105504;1259;71983;-46
2023/05/23 00:36:46;;;;;;;2.60;2.10;;;;;;;11.12;100.00;99703.27;105250;1255;61505;-46
2023/05/23 00:39:18;;;;;;;2.90;1.70;;;;;;;11.07;100.00;99703.70;105077;1260;59632;-46
2023/05/23 00:41:48;;;;;;;3.40;2.30;;;;;;;11.02;100.00;99705.42;105128;1255;72420;-46
2023/05/23 00:44:19;;;;;;;2.20;2.00;;;;;;;10.98;100.00;99703.98;105126;1258;67612;-44
2023/05/23 00:46:50;;;;;;;2.30;1.40;;;;;;;10.89;100.00;99703.73;104862;1255;71158;-47
2023/05/23 00:49:21;;;;;;;2.10;1.80;;;;;;;10.82;100.00;99701.41;105119;1257;60447;-46
2023/05/23 00:51:50;;;;;;;3.00;1.80;;;;;;;10.77;100.00;99696.99;104717;1255;59817;-47
2023/05/23 00:54:22;;;;;;;5.10;2.30;;;;;;;10.75;100.00;99698.53;105175;1258;71938;-45
2023/05/23 00:56:49;;;;;;;5.00;1.80;;;;;;;10.73;100.00;99695.55;104933;1260;65815;-47
2023/05/23 00:59:16;;;;;;;3.50;1.70;;;;;;;10.72;100.00;99689.17;105041;1256;72896;-46
2023/05/23 01:01:45;;;;;;;4.50;1.70;;;;;;;10.69;100.00;99691.27;104996;1254;59725;-48
2023/05/23 01:04:15;;;;;;;2.40;1.70;;;;;;;10.63;100.00;99687.96;105121;1258;59554;-48
2023/05/23 01:06:45;;;;;;;3.70;2.20;;;;;;;10.59;100.00;99682.45;104930;1256;72494;-47
2023/05/23 01:09:14;;;;;;;2.00;1.60;;;;;;;10.56;100.00;99685.08;104901;1256;68069;-47
2023/05/23 01:11:55;;;;;;;4.70;1.60;;;;;;;10.54;100.00;99686.25;105578;1257;72729;-47
2023/05/23 01:14:34;;;;;;;5.20;2.00;;;;;;;10.52;100.00;99682.05;104925;1255;59763;-46
2023/05/23 01:17:06;;;;;;;3.90;1.80;;;;;;;10.47;100.00;99685.37;104916;1258;60207;-47
2023/05/23 01:19:50;;;;;;;9.10;2.20;;;;;;;10.42;100.00;99682.91;105228;1263;71696;-46
2023/05/23 01:22:40;;;;;;;2.50;1.50;;;;;;;10.41;100.00;99687.84;104862;1256;65913;-47
2023/05/23 01:25:37;;;;;;;2.50;1.60;;;;;;;10.38;100.00;99688.88;104696;1257;73805;-46
2023/05/23 01:28:05;;;;;;;3.50;1.90;;;;;;;10.36;100.00;99687.00;105022;1259;62813;-46
2023/05/23 01:30:34;;;;;;;2.40;1.60;;;;;;;10.32;100.00;99687.73;104959;1261;59541;-47
2023/05/23 01:33:02;;;;;;;1.40;1.20;;;;;;;10.24;100.00;99687.55;104790;1256;73315;-46
2023/05/23 01:35:29;;;;;;;2.40;1.80;;;;;;;10.16;100.00;99689.17;104958;1262;66063;-46
2023/05/23 01:37:57;;;;;;;1.80;1.40;;;;;;;10.13;100.00;99689.84;104670;1256;72082;-46
2023/05/23 01:40:24;;;;;;;3.60;1.70;;;;;;;10.12;100.00;99693.30;104864;1261;62219;-45
2023/05/23 01:42:54;;;;;;;2.80;1.50;;;;;;;10.07;100.00;99693.36;104881;1258;59559;-46
2023/05/23 01:45:21;;;;;;;6.40;2.40;;;;;;;10.03;100.00;99694.27;105806;1255;73379;-47
2023/05/23 01:47:49;;;;;;;2.60;1.50;;;;;;;10.04;100.00;99694.41;105011;1256;69806;-46
2023/05/23 01:50:16;;;;;;;7.90;1.80;;;;;;;10.04;100.00;99692.41;105227;1256;73054;-47
2023/05/23 01:52:45;;;;;;;2.60;1.60;;;;;;;10.03;100.00;99692.48;105135;1260;59901;-47
2023/05/23 01:55:14;;;;;;;5.20;1.70;;;;;;;10.04;100.00;99690.83;105283;1257;60600;-45
2023/05/23 01:57:42;;;;;;;2.50;2.00;;;;;;;10.03;100.00;99694.10;106488;1262;72663;-44
2023/05/23 02:00:11;;;;;;;2.80;2.00;;;;;;;9.97;100.00;99695.14;105160;1256;66182;-46
2023/05/23 02:02:41;;;;;;;2.70;2.10;;;;;;;9.87;100.00;99694.11;108940;1255;72732;-46
2023/05/23 02:05:09;;;;;;;6.10;2.60;;;;;;;9.82;100.00;99696.87;108838;1255;61262;-47
2023/05/23 02:07:38;;;;;;;3.30;2.10;;;;;;;9.81;100.00;99694.05;108920;1254;57917;-47
2023/05/23 02:10:09;;;;;;;4.30;1.70;;;;;;;9.79;100.00;99690.71;108843;1255;72892;-47
2023/05/23 02:12:37;;;;;;;3.40;1.70;;;;;;;9.76;100.00;99688.37;108839;1255;66418;-47
2023/05/23 02:15:06;;;;;;;4.40;1.90;;;;;;;9.75;100.00;99686.42;109000;1255;72136;-47
2023/05/23 02:17:33;;;;;;;2.00;1.40;;;;;;;9.78;100.00;99681.29;108786;1255;60641;-46
2023/05/23 02:20:01;;;;;;;2.70;1.60;;;;;;;9.79;100.00;99678.91;108824;1255;59873;-47
2023/05/23 02:22:28;;;;;;;2.20;1.50;;;;;;;9.80;100.00;99678.32;108887;1255;73250;-47
2023/05/23 02:24:55;;;;;;;3.00;1.70;;;;;;;9.81;100.00;99678.99;108843;1255;68258;-47
2023/05/23 02:27:23;;;;;;;1.60;1.30;;;;;;;9.80;100.00;99680.09;108748;1255;72837;-46
2023/05/23 02:29:50;;;;;;;4.20;1.80;;;;;;;9.80;100.00;99678.49;108847;1255;60260;-47
2023/05/23 02:32:18;;;;;;;2.30;1.30;;;;;;;9.79;100.00;99677.84;108862;1255;59529;-47
2023/05/23 02:34:45;;;;;;;3.00;1.80;;;;;;;9.80;100.00;99672.95;108988;1256;75024;-47
2023/05/23 02:37:13;;;;;;;2.50;1.40;;;;;;;9.82;100.00;99675.19;108935;1253;68214;-47
2023/05/23 02:39:42;;;;;;;4.70;1.50;;;;;;;9.84;100.00;99674.54;108806;1254;72771;-46
2023/05/23 02:42:09;;;;;;;2.60;1.30;;;;;;;9.86;100.00;99675.17;108839;1256;60582;-46
2023/05/23 02:44:36;;;;;;;2.70;1.60;;;;;;;9.85;100.00;99673.23;108957;1255;59677;-47
2023/05/23 02:47:04;;;;;;;3.40;1.30;;;;;;;9.87;100.00;99673.69;108959;1256;72490;-47
2023/05/23 02:49:33;;;;;;;2.10;1.50;;;;;;;9.91;100.00;99669.75;106459;1255;69171;-45
2023/05/23 02:52:00;;;;;;;1.50;1.40;;;;;;;9.98;100.00;99672.46;105347;1261;72963;-45
2023/05/23 02:54:27;;;;;;;4.00;1.80;;;;;;;10.01;100.00;99666.94;105498;1260;60486;-47
2023/05/23 02:56:55;;;;;;;2.30;1.80;;;;;;;10.02;100.00;99668.00;105356;1256;62162;-46
2023/05/23 02:59:23;;;;;;;4.30;1.60;;;;;;;10.05;100.00;99673.02;105307;1259;73728;-46
2023/05/23 03:01:50;;;;;;;4.00;1.90;;;;;;;10.07;100.00;99669.70;105236;1261;67571;-47
2023/05/23 03:04:17;;;;;;;3.70;1.90;;;;;;;10.09;100.00;99669.61;105193;1256;72017;-46
2023/05/23 03:06:46;;;;;;;2.60;1.40;;;;;;;10.09;100.00;99668.73;105328;1255;60526;-46
2023/05/23 03:09:15;;;;;;;2.50;1.30;;;;;;;10.08;100.00;99664.48;105287;1256;60460;-45
2023/05/23 03:11:43;;;;;;;1.60;1.40;;;;;;;10.08;100.00;99661.41;105293;1256;71772;-46
2023/05/23 03:14:11;;;;;;;2.90;1.40;;;;;;;10.07;100.00;99661.09;105233;1255;65689;-45
2023/05/23 03:16:39;;;;;;;4.00;1.50;;;;;;;10.04;100.00;99664.44;105606;1260;72547;-46
2023/05/23 03:19:07;;;;;;;3.80;1.50;;;;;;;10.05;100.00;99666.41;105742;1261;61193;-44
2023/05/23 03:21:35;;;;;;;2.90;1.70;;;;;;;10.08;100.00;99667.50;105395;1260;60483;-46
2023/05/23 03:24:02;;;;;;;3.00;1.60;;;;;;;10.13;100.00;99665.30;105158;1261;73037;-46
2023/05/23 03:26:30;;;;;;;2.40;1.40;;;;;;;10.20;100.00;99672.51;105172;1261;66843;-45
2023/05/23 03:28:57;;;;;;;1.90;1.40;;;;;;;10.29;100.00;99680.16;105292;1255;72729;-47
2023/05/23 03:31:25;;;;;;;1.70;1.20;;;;;;;10.37;100.00;99676.36;105197;1255;60569;-46
2023/05/23 03:33:52;;;;;;;2.60;1.80;;;;;;;10.46;100.00;99679.86;105336;1261;60139;-45
2023/05/23 03:36:20;;;;;;;2.60;1.50;;;;;;;10.56;100.00;99677.38;105356;1260;73671;-45
2023/05/23 03:38:48;;;;;;;1.50;1.20;;;;;;;10.68;100.00;99674.30;105363;1261;66414;-47
2023/05/23 03:41:15;;;;;;;2.30;1.30;;;;;;;10.80;100.00;99676.74;105513;1254;73321;-47
2023/05/23 03:43:43;;;;;;;3.00;1.50;;;;;;;10.92;100.00;99674.70;105249;1255;63428;-46
2023/05/23 03:46:11;;;;;;;2.50;1.20;;;;;;;11.02;100.00;99675.59;105556;1261;61611;-44
2023/05/23 03:48:40;;;;;;;3.10;1.00;;;;;;;11.13;100.00;99674.46;105490;1255;74908;-46
2023/05/23 03:51:08;;;;;;;1.20;1.10;;;;;;;11.25;100.00;99675.86;105443;1256;67562;-46
2023/05/23 03:53:36;;;;;;;4.10;1.20;;;;;;;11.39;100.00;99679.96;105429;1256;71481;-46
2023/05/23 03:56:04;;;;;;;3.80;1.10;;;;;;;11.55;100.00;99682.52;105333;1259;61782;-45
2023/05/23 03:58:31;;;;;;;3.30;1.10;;;;;;;11.72;100.00;99677.30;105204;1261;59595;-46
2023/05/23 04:01:01;;;;;;;1.60;1.00;;;;;;;11.88;100.00;99678.60;107599;1255;73986;-46
2023/05/23 04:03:31;;;;;;;1.30;0.90;;;;;;;12.03;100.00;99677.20;105709;1257;67476;-47
2023/05/23 04:06:00;;;;;;;2.20;1.50;;;;;;;12.19;100.00;99679.38;105358;1259;72537;-47
2023/05/23 04:08:29;;;;;;;3.70;1.20;;;;;;;12.33;100.00;99688.12;105129;1256;65346;-45
2023/05/23 04:10:56;;;;;;;1.60;0.90;;;;;;;12.48;100.00;99685.96;105354;1256;60505;-47
2023/05/23 04:13:25;;;;;;;1.00;0.80;;;;;;;12.62;100.00;99684.83;105318;1258;72972;-47
2023/05/23 04:15:55;;;;;;;1.20;0.90;;;;;;;12.75;100.00;99688.23;107253;1257;66883;-47
2023/05/23 04:18:24;;;;;;;7.70;0.90;;;;;;;12.88;100.00;99684.21;106221;1259;74049;-46
2023/05/23 04:20:52;;;;;;;1.70;1.10;;;;;;;13.02;100.00;99688.45;105139;1258;60548;-48
2023/05/23 04:23:19;;;;;;;2.90;1.00;;;;;;;13.15;100.00;99686.55;104984;1259;60422;-46
2023/05/23 04:25:50;;;;;;;3.20;1.00;;;;;;;13.27;100.00;99685.33;104993;1260;73798;-48
2023/05/23 04:28:26;;;;;;;3.20;1.00;;;;;;;13.40;100.00;99686.54;105028;1255;67180;-47
2023/05/23 04:30:55;;;;;;;2.40;0.90;;;;;;;13.53;100.00;99691.14;104833;1256;72008;-47
2023/05/23 04:33:27;;;;;;;3.30;1.30;;;;;;;13.65;100.00;99690.16;105065;1258;61829;-47
2023/05/23 04:35:55;;;;;;;2.10;1.10;;;;;;;13.79;100.00;99695.25;105185;1256;60660;-46
2023/05/23 04:38:24;;;;;;;3.10;1.00;;;;;;;13.94;100.00;99698.14;105931;1260;73523;-47
2023/05/23 04:40:52;;;;;;;2.20;0.90;;;;;;;14.07;100.00;99699.63;105896;1256;67478;-46
2023/05/23 04:43:47;;;;;;;2.20;1.20;;;;;;;14.22;100.00;99701.91;104757;1256;72627;-47
2023/05/23 04:46:27;;;;;;;3.90;1.00;;;;;;;14.35;100.00;99705.43;105288;1261;60546;-47
2023/05/23 04:49:08;;;;;;;1.30;1.00;;;;;;;14.49;100.00;99708.52;105708;1256;60511;-47
2023/05/23 04:51:37;;;;;;;11.30;1.30;;;;;;;14.60;100.00;99708.31;105314;1260;73894;-46
2023/05/23 04:54:43;;;;;;;1.80;1.20;;;;;;;14.74;100.00;99703.25;105759;1255;66331;-46
2023/05/23 04:57:11;;;;;;;3.70;1.00;;;;;;;14.85;100.00;99702.52;108923;1255;71966;-48
2023/05/23 04:59:39;;;;;;;1.80;0.80;;;;;;;14.95;100.00;99706.00;108862;1255;59403;-48
2023/05/23 05:02:08;;;;;;;5.40;1.00;;;;;;;15.05;100.00;99710.16;109001;1256;59812;-48
2023/05/23 05:04:37;;;;;;;2.00;0.80;;;;;;;15.16;100.00;99711.44;108812;1255;73297;-48
2023/05/23 05:07:05;;;;;;;2.50;1.10;;;;;;;15.26;100.00;99715.77;108925;1255;67064;-48
2023/05/23 05:09:33;;;;;;;3.10;1.10;;;;;;;15.38;100.00;99716.80;108957;1254;72108;-48
2023/05/23 05:12:00;;;;;;;2.40;1.10;;;;;;;15.50;100.00;99718.67;109001;1254;59459;-48
2023/05/23 05:14:28;;;;;;;1.70;1.00;;;;;;;15.61;100.00;99719.75;108920;1254;58860;-48
2023/05/23 05:16:56;;;;;;;1.40;0.90;;;;;;;15.71;100.00;99720.83;109036;1254;74618;-49
2023/05/23 05:19:29;;;;;;;3.00;0.90;;;;;;;15.80;100.00;99721.44;108927;1258;67506;-48
2023/05/23 05:21:56;;;;;;;2.40;0.90;;;;;;;15.89;100.00;99725.38;105802;1257;71276;-47
2023/05/23 05:24:24;;;;;;;2.50;0.90;;;;;;;15.97;100.00;99724.10;108995;1255;61735;-48
2023/05/23 05:26:52;;;;;;;2.90;0.90;;;;;;;16.05;100.00;99724.21;108936;1255;59443;-48
2023/05/23 05:29:20;;;;;;;1.40;0.90;;;;;;;16.15;100.00;99721.89;108883;1261;72395;-49
2023/05/23 05:31:47;;;;;;;3.60;1.00;;;;;;;16.23;100.00;99725.06;108942;1254;66347;-48
2023/05/23 05:34:15;;;;;;;2.30;1.00;;;;;;;16.33;100.00;99723.17;108997;1255;74022;-48
2023/05/23 05:36:46;;;;;;;5.70;1.00;;;;;;;16.41;100.00;99726.32;108953;1255;59315;-48
2023/05/23 05:39:16;;;;;;;3.90;1.10;;;;;;;16.49;100.00;99726.98;108941;1255;59631;-48
2023/05/23 05:41:43;;;;;;;1.10;0.80;;;;;;;16.57;100.00;99722.99;108926;1255;73341;-48
2023/05/23 05:44:11;;;;;;;1.20;0.90;;;;;;;16.63;100.00;99721.11;105265;1256;70008;-47
2023/05/23 05:46:38;;;;;;;3.80;1.10;;;;;;;16.71;100.00;99720.93;107155;1260;71580;-47
2023/05/23 05:49:06;;;;;;;2.70;0.80;;;;;;;16.78;100.00;99720.77;105164;1260;60511;-48
2023/05/23 05:51:35;;;;;;;3.60;0.80;;;;;;;16.87;100.00;99717.55;105664;1260;61696;-47
2023/05/23 05:54:02;;;;;;;4.60;1.20;;;;;;;16.95;100.00;99713.46;105089;1261;74423;-47
2023/05/23 05:56:30;;;;;;;1.50;1.00;;;;;;;17.03;100.00;99711.77;104813;1261;68130;-48
2023/05/23 05:58:58;;;;;;;2.40;1.00;;;;;;;17.13;100.00;99709.77;104637;1262;72219;-48
2023/05/23 06:01:26;;;;;;;3.60;0.90;;;;;;;17.21;100.00;99709.65;104944;1256;60946;-48
2023/05/23 06:03:53;;;;;;;3.00;1.00;;;;;;;17.28;100.00;99708.23;104855;1261;60924;-49
2023/05/23 06:06:22;;;;;;;5.60;0.80;;;;;;;17.35;100.00;99712.76;105394;1260;75645;-49
2023/05/23 06:08:49;;;;;;;1.50;1.10;;;;;;;17.43;100.00;99707.25;104908;1256;66703;-49
2023/05/23 06:11:17;;;;;;;5.00;0.90;;;;;;;17.50;100.00;99713.41;104834;1255;72562;-48
2023/05/23 06:13:44;;;;;;;2.00;1.00;;;;;;;17.59;100.00;99709.66;104707;1261;60562;-49
2023/05/23 06:16:12;;;;;;;1.40;1.10;;;;;;;17.67;100.00;99711.39;104773;1256;60626;-49
2023/05/23 06:18:40;;;;;;;1.20;1.00;;;;;;;17.74;100.00;99709.58;105067;1259;74406;-49
2023/05/23 06:21:08;;;;;;;2.40;1.00;;;;;;;17.80;100.00;99711.27;105087;1261;67535;-49
2023/05/23 06:23:35;;;;;;;3.20;1.10;;;;;;;17.87;100.00;99713.61;105344;1255;73156;-50
2023/05/23 06:26:06;;;;;;;2.90;1.10;;;;;;;17.95;100.00;99712.59;104936;1261;62207;-48
2023/05/23 06:28:34;;;;;;;9.90;1.40;;;;;;;18.06;100.00;99707.53;104771;1256;60990;-49
2023/05/23 06:31:01;;;;;;;5.40;1.00;;;;;;;18.17;100.00;99708.34;104592;1258;74223;-48
2023/05/23 06:33:30;;;;;;;3.30;1.60;;;;;;;18.26;100.00;99706.91;104511;1260;67487;-48
2023/05/23 06:35:57;;;;;;;6.50;1.50;;;;;;;18.32;100.00;99704.33;104596;1259;71253;-48
2023/05/23 06:38:26;;;;;;;3.90;1.60;;;;;;;18.39;100.00;99705.08;104531;1257;60491;-48
2023/05/23 06:40:53;;;;;;;2.70;1.30;;;;;;;18.44;100.00;99703.79;105064;1255;60580;-48
2023/05/23 06:43:20;;;;;;;5.90;1.30;;;;;;;18.47;100.00;99700.56;105323;1258;73672;-48
2023/05/23 06:45:52;;;;;;;4.90;1.20;;;;;;;18.51;100.00;99698.42;105466;1260;67726;-47
2023/05/23 06:48:20;;;;;;;5.40;1.10;;;;;;;18.56;100.00;99697.11;105333;1257;71429;-48
2023/05/23 06:50:48;;;;;;;7.60;1.50;;;;;;;18.64;100.00;99697.59;105280;1258;62471;-48
2023/05/23 06:53:16;;;;;;;3.10;1.30;;;;;;;18.71;100.00;99687.91;105251;1260;60436;-48
2023/05/23 06:55:46;;;;;;;4.20;1.10;;;;;;;18.78;100.00;99685.48;105446;1256;73650;-48
2023/05/23 06:58:15;;;;;;;2.70;1.30;;;;;;;18.87;100.00;99685.84;105494;1260;68154;-49
2023/05/23 07:00:42;;;;;;;4.00;1.00;;;;;;;18.96;100.00;99688.05;105386;1261;71087;-49
2023/05/23 07:03:42;;;;;;;4.50;3.00;;;;;;;19.06;100.00;99687.36;105186;1258;60739;-47
2023/05/23 07:06:10;;;;;;;3.20;1.70;;;;;;;19.15;100.00;99689.65;105818;1256;60435;-47
2023/05/23 07:08:38;;;;;;;5.70;1.50;;;;;;;19.24;100.00;99686.91;106319;1255;72565;-49
2023/05/23 07:11:06;;;;;;;2.40;1.30;;;;;;;19.35;100.00;99686.89;105406;1261;67645;-49
2023/05/23 07:13:37;;;;;;;1.20;1.10;;;;;;;19.46;100.00;99683.36;105057;1260;70724;-49
2023/05/23 07:16:05;;;;;;;7.40;2.10;;;;;;;19.56;100.00;99684.00;104678;1261;60484;-47
2023/05/23 07:18:34;;;;;;;3.30;1.40;;;;;;;19.65;100.00;99686.81;104764;1263;60443;-47
2023/05/23 07:21:04;;;;;;;2.40;1.00;;;;;;;19.76;100.00;99687.87;105275;1255;74040;-49
2023/05/23 07:23:33;;;;;;;4.10;0.90;;;;;;;19.87;100.00;99691.07;105307;1256;68218;-49
2023/05/23 07:26:01;;;;;;;2.90;0.70;;;;;;;19.97;100.00;99695.13;105015;1271;72143;-47
2023/05/23 07:28:40;;;;;;;2.20;0.70;;;;;;;20.03;100.00;99690.97;105721;1262;60546;-48
2023/05/23 07:31:08;;;;;;;1.40;0.50;;;;;;;20.09;100.00;99691.17;105315;1261;60568;-48
2023/05/23 07:33:36;;;;;;;2.50;0.70;;;;;;;20.15;100.00;99689.86;106083;1256;73127;-49
2023/05/23 07:36:04;;;;;;;5.50;1.00;;;;;;;20.19;100.00;99691.39;105260;1261;67838;-50
2023/05/23 07:38:32;;;;;;;4.10;0.50;;;;;;;20.18;100.00;99691.21;105173;1260;72466;-51
2023/05/23 07:40:59;;;;;;;1.00;0.70;;;;;;;20.21;100.00;99693.36;105247;1261;62177;-48
2023/05/23 07:43:38;;;;;;;1.50;0.50;;;;;;;20.20;100.00;99690.53;105278;1260;60478;-48
2023/05/23 07:46:06;;;;;;;6.90;4.10;;;;;;;20.21;100.00;99692.13;105599;1254;71824;-48
2023/05/23 07:48:33;;;;;;;7.70;2.70;;;;;;;20.23;100.00;99689.02;105257;1264;66575;-48
2023/05/23 07:51:02;;;;;;;5.70;0.70;;;;;;;20.28;100.00;99683.64;105678;1257;72698;-49
2023/05/23 07:53:30;;;;;;;0.60;0.50;;;;;;;20.35;100.00;99685.50;105592;1261;61016;-48
2023/05/23 07:55:58;;;;;;;1.60;0.80;;;;;;;20.45;100.00;99681.08;105109;1258;60731;-50
2023/05/23 07:58:27;;;;;;;2.60;0.70;;;;;;;20.57;100.00;99679.79;104886;1257;74043;-47
2023/05/23 08:00:56;;;;;;;1.80;0.70;;;;;;;20.61;100.00;99686.13;105104;1258;69163;-48
2023/05/23 08:03:50;;;;;;;1.50;0.50;;;;;;;20.63;100.00;99680.78;106904;1256;73009;-47
2023/05/23 08:06:22;;;;;;;1.20;0.40;;;;;;;20.67;100.00;99679.39;105062;1261;60453;-48
2023/05/23 08:08:50;;;;;;;0.80;0.50;;;;;;;20.68;100.00;99675.45;105305;1257;60545;-47
2023/05/23 08:11:17;;;;;;;1.00;0.50;;;;;;;20.66;100.00;99672.00;105152;1258;73695;-47
2023/05/23 08:13:48;;;;;;;1.70;0.40;;;;;;;20.67;100.00;99676.25;105243;1260;66946;-48
2023/05/23 08:16:36;;;;;;;3.40;0.40;;;;;;;20.70;100.00;99671.45;105112;1260;73504;-48
2023/05/23 08:19:07;;;;;;;1.10;0.50;;;;;;;20.70;100.00;99671.93;108827;1262;59191;-49
2023/05/23 08:21:35;;;;;;;3.20;0.50;;;;;;;20.71;100.00;99664.92;108835;1256;59656;-49
2023/05/23 08:24:02;;;;;;;1.10;0.50;;;;;;;20.76;100.00;99663.74;109104;1260;73865;-49
2023/05/23 08:26:33;;;;;;;0.80;0.50;;;;;;;20.83;100.00;99664.94;109029;1257;67436;-49
2023/05/23 08:29:01;;;;;;;2.90;0.50;;;;;;;20.92;100.00;99664.66;108869;1257;72543;-49
2023/05/23 08:31:30;;;;;;;5.70;0.60;;;;;;;21.00;100.00;99662.64;108728;1257;59103;-49
2023/05/23 08:33:58;;;;;;;0.60;0.50;;;;;;;21.10;100.00;99657.52;108804;1257;59809;-50
2023/05/23 08:36:25;;;;;;;1.50;0.50;;;;;;;21.16;100.00;99659.33;108619;1256;73263;-49
2023/05/23 08:38:53;;;;;;;1.90;0.50;;;;;;;21.19;100.00;99653.63;108699;1261;66718;-50
2023/05/23 08:41:32;;;;;;;2.50;0.60;;;;;;;21.23;100.00;99654.16;108731;1260;72650;-49
2023/05/23 08:44:03;;;;;;;2.60;0.60;;;;;;;21.26;100.00;99653.64;108817;1259;60508;-49
2023/05/23 08:46:37;;;;;;;2.20;0.60;;;;;;;21.33;100.00;99651.95;108884;1256;58747;-50
2023/05/23 08:49:05;;;;;;;2.70;0.60;;;;;;;21.37;100.00;99645.16;106380;1260;71913;-50
2023/05/23 08:51:32;;;;;;;1.10;0.50;;;;;;;21.42;100.00;99644.81;105066;1265;67104;-48
2023/05/23 08:54:01;;;;;;;1.10;0.50;;;;;;;21.49;100.00;99646.20;104810;1263;72494;-48
2023/05/23 08:56:29;;;;;;;1.20;0.50;;;;;;;21.57;100.00;99641.38;105068;1259;60934;-48
2023/05/23 08:58:56;;;;;;;1.20;0.60;;;;;;;21.67;100.00;99640.19;104960;1255;60542;-49
2023/05/23 09:01:24;;;;;;;1.90;0.50;;;;;;;21.75;100.00;99636.88;106028;1259;73921;-48
2023/05/23 09:03:53;;;;;;;1.60;0.60;;;;;;;21.80;100.00;99635.66;105289;1260;68924;-49
2023/05/23 09:06:27;;;;;;;0.80;0.50;;;;;;;21.85;100.00;99636.30;105497;1261;71730;-49
2023/05/23 09:08:56;;;;;;;1.60;0.60;;;;;;;21.88;100.00;99630.08;105171;1264;60488;-49
2023/05/23 09:11:23;;;;;;;2.20;0.50;;;;;;;21.93;100.00;99633.20;105730;1256;60455;-50
2023/05/23 09:13:51;;;;;;;2.80;0.50;;;;;;;21.93;100.00;99629.16;105731;1260;73069;-48
2023/05/23 09:16:19;;;;;;;2.50;0.50;;;;;;;21.88;100.00;99625.70;105273;1257;68106;-48
2023/05/23 09:18:53;;;;;;;;;;;;;;;21.87;100.00;99622.17;105490;1259;72914;-49
2023/05/23 09:21:23;;;;;;;2.30;0.50;;;;;;;21.87;100.00;99617.39;106432;1262;60465;-48
2023/05/23 09:23:56;;;;;;;;;;;;;;;21.90;100.00;99614.79;105412;1261;60438;-49
2023/05/23 09:26:24;;;;;;;3.70;0.60;;;;;;;21.94;100.00;99617.02;105127;1262;72606;-49
2023/05/23 09:28:52;;;;;;;2.80;0.50;;;;;;;21.98;100.00;99612.21;104962;1262;68251;-49
2023/05/23 09:31:24;;;;;;;0.90;0.40;;;;;;;22.04;100.00;99616.25;105156;1263;72110;-49
2023/05/23 09:33:54;;;;;;;0.70;0.50;;;;;;;22.01;100.00;99614.33;105763;1257;60548;-49
2023/05/23 09:36:22;;;;;;;2.30;0.40;;;;;;;21.93;100.00;99614.13;105313;1259;60786;-48
2023/05/23 09:38:51;;;;;;;2.00;0.40;;;;;;;21.91;100.00;99608.67;105148;1257;74273;-49
2023/05/23 09:41:19;;;;;;;1.90;0.50;;;;;;;21.94;100.00;99610.47;105518;1258;66966;-47
2023/05/23 09:43:50;;;;;;;0.60;0.50;;;;;;;21.96;100.00;99602.86;105302;1257;71230;-49
2023/05/23 09:46:18;;;;;;;2.00;0.50;;;;;;;22.02;100.00;99598.92;105484;1260;60378;-50
2023/05/23 09:48:47;;;;;;;3.40;0.50;;;;;;;22.06;100.00;99600.48;105154;1257;60556;-51
2023/05/23 09:51:15;;;;;;;3.40;0.50;;;;;;;22.10;100.00;99599.35;105362;1258;74472;-51
2023/05/23 09:53:42;;;;;;;1.00;0.40;;;;;;;22.13;100.00;99596.13;105201;1260;69241;-50
2023/05/23 09:56:10;;;;;;;0.60;0.30;;;;;;;22.16;100.00;99585.38;105298;1260;74631;-50
2023/05/23 09:58:37;;;;;;;4.10;0.90;;;;;;;22.23;100.00;99587.04;105209;1264;60740;-50
2023/05/23 10:01:06;;;;;;;2.10;0.50;;;;;;;22.32;100.00;99589.32;104925;1264;60598;-51
2023/05/23 10:03:43;;;;;;;0.90;0.40;;;;;;;22.41;100.00;99588.91;104835;1264;73848;-49
2023/05/23 10:06:15;;;;;;;2.50;0.50;;;;;;;22.51;100.00;99593.42;104750;1258;69004;-50
2023/05/23 10:08:43;;;;;;;1.60;0.50;;;;;;;22.55;100.00;99597.71;104942;1260;73207;-50
2023/05/23 10:11:15;;;;;;;0.40;0.30;;;;;;;22.56;100.00;99592.48;104976;1267;60487;-49
2023/05/23 10:13:44;;;;;;;1.90;0.40;;;;;;;22.59;100.00;99594.20;105247;1261;60634;-49
2023/05/23 10:16:15;;;;;;;1.50;0.50;;;;;;;22.65;100.00;99595.79;105439;1256;72024;-50
2023/05/23 10:18:43;;;;;;;3.50;0.40;;;;;;;22.71;100.00;99591.56;105564;1257;66896;-49
2023/05/23 10:21:11;;;;;;;0.70;0.40;;;;;;;22.70;100.00;99586.42;105176;1257;71158;-51
2023/05/23 10:23:39;;;;;;;2.10;0.40;;;;;;;22.70;100.00;99586.64;105302;1256;60534;-50
2023/05/23 10:26:07;;;;;;;2.20;0.50;;;;;;;22.66;100.00;99580.18;105063;1258;60554;-51
2023/05/23 10:28:34;;;;;;;1.40;0.50;;;;;;;22.64;100.00;99581.42;105272;1256;74882;-48
2023/05/23 10:31:01;;;;;;;2.60;0.50;;;;;;;22.65;100.00;99575.64;105034;1257;229172;-50
2023/05/23 10:35:19;;;;;;;1.40;0.40;;;;;;;22.66;100.00;99567.73;102169;1295;601101;-50
2023/05/23 10:37:59;;;;;;;1.30;0.50;;;;;;;22.64;100.00;99572.83;104145;1266;59189;-48
2023/05/23 10:40:41;;;;;;;2.30;0.50;;;;;;;22.65;100.00;99572.73;103993;1269;59174;-50
2023/05/23 10:43:19;;;;;;;2.00;0.40;;;;;;;22.64;100.00;99572.48;104152;1269;71651;-48
2023/05/23 10:45:49;;;;;;;4.10;0.50;;;;;;;22.63;100.00;99570.58;104185;1270;66908;-51
2023/05/23 10:48:39;;;;;;;0.80;0.50;;;;;;;22.64;100.00;99570.83;104408;1270;125408;-50
2023/05/23 10:51:08;;;;;;;1.30;0.40;;;;;;;22.65;100.00;99568.51;104927;1266;59320;-48
2023/05/23 10:53:37;;;;;;;2.10;0.40;;;;;;;22.67;100.00;99561.48;104861;1269;59246;-48
2023/05/23 10:56:06;;;;;;;1.10;0.40;;;;;;;22.64;100.00;99562.77;104934;1265;72087;-50
2023/05/23 10:58:34;;;;;;;0.50;0.40;;;;;;;22.63;100.00;99559.80;108530;1261;70954;-49
2023/05/23 11:01:05;;;;;;;2.30;0.40;;;;;;;22.64;100.00;99560.82;105251;1258;72198;-52
2023/05/23 11:03:44;;;;;;;0.90;0.50;;;;;;;22.66;100.00;99551.09;108848;1258;60649;-52
2023/05/23 11:06:34;;;;;;;2.30;0.50;;;;;;;22.65;100.00;99554.48;108621;1257;58479;-52
2023/05/23 11:09:09;;;;;;;0.70;0.50;;;;;;;22.63;100.00;99553.98;108912;1257;73002;-52
2023/05/23 11:11:58;;;;;;;1.80;0.50;;;;;;;22.63;100.00;99549.94;108943;1256;65919;-52
2023/05/23 11:14:32;;;;;;;1.00;0.40;;;;;;;22.61;100.00;99547.77;108939;1256;72830;-52
2023/05/23 11:17:00;;;;;;;1.70;0.60;;;;;;;22.61;100.00;99542.45;108938;1257;60061;-52
2023/05/23 11:19:28;;;;;;;0.80;0.50;;;;;;;22.63;100.00;99540.75;108912;1254;60313;-52
2023/05/23 11:22:00;;;;;;;1.10;0.50;;;;;;;22.70;100.00;99541.02;108941;1257;72155;-51
2023/05/23 11:24:51;;;;;;;2.50;0.80;;;;;;;22.79;100.00;99539.02;108916;1257;66715;-51
2023/05/23 11:27:36;;;;;;;1.40;0.50;;;;;;;22.90;100.00;99545.78;108971;1257;73277;-52
2023/05/23 11:30:13;;;;;;;3.50;0.50;;;;;;;22.96;100.00;99538.02;108895;1254;59748;-51
2023/05/23 11:32:50;;;;;;;4.10;0.50;;;;;;;23.00;100.00;99538.84;108980;1254;58285;-51
2023/05/23 11:35:18;;;;;;;1.00;0.50;;;;;;;23.06;100.00;99541.50;107012;1258;72837;-51